createdAt,value
2019-03-08T00:00:22.460Z,86.66
2019-03-08T00:02:51.692Z,86.62
2019-03-08T00:05:21.135Z,86.58
2019-03-08T00:07:50.635Z,86.51
2019-03-08T00:10:19.892Z,86.41
2019-03-08T00:12:49.148Z,86.42
2019-03-08T00:15:18.895Z,86.41
2019-03-08T00:17:48.123Z,86.32
2019-03-08T00:20:17.468Z,86.17
2019-03-08T00:22:47.015Z,86.03
2019-03-08T00:25:16.346Z,86.16
2019-03-08T00:27:45.702Z,86.18
2019-03-08T00:30:15.955Z,86.12
2019-03-08T00:32:45.410Z,86.09
2019-03-08T00:35:14.657Z,86.07
2019-03-08T00:37:44.126Z,86.05
2019-03-08T00:40:13.589Z,86.01
2019-03-08T00:42:42.828Z,86.00
2019-03-08T00:45:12.450Z,85.97
2019-03-08T00:47:43.487Z,85.87
2019-03-08T00:50:12.751Z,85.67
2019-03-08T00:52:42.120Z,85.58
2019-03-08T00:55:11.487Z,85.51
2019-03-08T00:57:40.825Z,85.38
2019-03-08T01:00:15.077Z,85.24
2019-03-08T01:02:44.533Z,85.17
2019-03-08T01:05:15.090Z,85.07
2019-03-08T01:07:44.771Z,84.98
2019-03-08T01:10:16.291Z,84.80
2019-03-08T01:12:46.294Z,84.78
2019-03-08T01:15:17.787Z,84.74
2019-03-08T01:17:47.767Z,84.63
2019-03-08T01:20:17.920Z,84.60
2019-03-08T01:22:47.297Z,84.61
2019-03-08T01:25:16.947Z,84.53
2019-03-08T01:28:00.577Z,84.43
2019-03-08T01:30:30.468Z,84.42
2019-03-08T01:32:59.817Z,84.25
2019-03-08T01:35:29.236Z,84.26
2019-03-08T01:37:58.665Z,84.16
2019-03-08T01:40:28.347Z,83.91
2019-03-08T01:42:57.626Z,83.54
2019-03-08T01:45:26.974Z,83.54
2019-03-08T01:47:57.377Z,83.58
2019-03-08T01:50:26.811Z,83.59
2019-03-08T01:52:56.289Z,83.62
2019-03-08T01:55:25.563Z,83.64
2019-03-08T01:57:54.928Z,83.64
2019-03-08T02:00:24.291Z,83.62
2019-03-08T02:02:53.925Z,83.66
2019-03-08T02:05:23.704Z,83.63
2019-03-08T02:07:53.132Z,83.79
2019-03-08T02:10:22.372Z,83.87
2019-03-08T02:12:51.857Z,83.92
2019-03-08T02:15:21.188Z,83.89
2019-03-08T02:17:50.716Z,84.00
2019-03-08T02:20:21.174Z,83.93
2019-03-08T02:22:50.675Z,84.08
2019-03-08T02:25:20.176Z,84.15
2019-03-08T02:27:49.487Z,84.24
2019-03-08T02:30:18.970Z,84.25
2019-03-08T02:32:48.240Z,84.27
2019-03-08T02:35:19.109Z,84.35
2019-03-08T03:13:01.239Z,84.90
2019-03-08T03:15:30.486Z,84.90
2019-03-08T03:17:59.720Z,85.00
2019-03-08T03:20:29.089Z,85.00
2019-03-08T03:22:58.449Z,85.04
2019-03-08T03:25:27.620Z,85.02
2019-03-08T03:27:57.232Z,84.92
2019-03-08T03:30:26.402Z,84.94
2019-03-08T03:32:55.644Z,84.90
2019-03-08T03:35:24.933Z,84.84
2019-03-08T03:37:54.166Z,84.77
2019-03-08T03:40:23.384Z,84.81
2019-03-08T03:42:53.342Z,84.86
2019-03-08T03:45:22.963Z,84.81
2019-03-08T03:47:52.145Z,84.80
2019-03-08T03:50:21.948Z,84.86
2019-03-08T03:52:51.131Z,84.85
2019-03-08T03:55:20.343Z,84.79
2019-03-08T03:57:49.836Z,84.88
2019-03-08T04:00:19.524Z,84.79
2019-03-08T04:02:48.710Z,84.75
2019-03-08T04:05:18.276Z,84.75
2019-03-08T04:07:47.569Z,84.80
2019-03-08T04:10:16.870Z,84.83
2019-03-08T04:12:46.171Z,84.82
2019-03-08T04:15:15.741Z,84.85
2019-03-08T04:17:45.224Z,84.83
2019-03-08T04:20:15.790Z,84.83
2019-03-08T04:22:44.961Z,84.85
2019-03-08T04:25:14.383Z,84.85
2019-03-08T04:27:43.745Z,84.87
2019-03-08T04:30:14.647Z,84.77
2019-03-08T04:32:43.907Z,84.78
2019-03-08T04:35:13.130Z,84.83
2019-03-08T04:37:42.309Z,84.76
2019-03-08T04:40:12.236Z,84.88
2019-03-08T04:42:41.468Z,84.95
2019-03-08T04:45:11.350Z,85.01
2019-03-08T04:47:41.066Z,85.00
2019-03-08T04:50:10.441Z,84.97
2019-03-08T04:52:39.611Z,85.03
2019-03-08T04:55:12.410Z,85.08
2019-03-08T04:57:41.647Z,85.08
2019-03-08T05:00:12.282Z,85.17
2019-03-08T05:02:41.566Z,85.13
2019-03-08T05:05:11.186Z,85.18
2019-03-08T05:07:40.391Z,85.16
2019-03-08T05:10:11.910Z,85.18
2019-03-08T05:12:41.502Z,85.15
2019-03-08T05:15:11.252Z,85.18
2019-03-08T05:17:40.646Z,85.12
2019-03-08T05:20:10.345Z,84.99
2019-03-08T05:22:39.538Z,85.03
2019-03-08T05:25:09.237Z,85.08
2019-03-08T05:27:38.520Z,85.07
2019-03-08T05:30:08.308Z,84.99
2019-03-08T05:32:37.783Z,85.08
2019-03-08T05:35:07.760Z,85.14
2019-03-08T05:37:36.944Z,85.32
2019-03-08T05:40:07.314Z,85.41
2019-03-08T05:42:36.531Z,85.36
2019-03-08T05:45:06.353Z,85.31
2019-03-08T05:47:35.755Z,85.26
2019-03-08T05:50:05.420Z,85.19
2019-03-08T05:52:34.624Z,85.17
2019-03-08T05:55:04.139Z,85.12
2019-03-08T05:57:33.378Z,85.12
2019-03-08T06:00:02.574Z,85.11
2019-03-08T06:02:31.836Z,85.11
2019-03-08T06:05:01.046Z,85.08
2019-03-08T06:07:30.252Z,85.06
2019-03-08T06:09:59.535Z,85.04
2019-03-08T06:12:28.745Z,84.96
2019-03-08T06:14:57.927Z,84.92
2019-03-08T06:17:27.429Z,84.98
2019-03-08T06:19:56.776Z,85.02
2019-03-08T06:22:25.945Z,84.95
2019-03-08T06:24:55.253Z,84.82
2019-03-08T06:27:24.728Z,84.76
2019-03-08T06:29:53.923Z,84.78
2019-03-08T06:32:23.326Z,84.78
2019-03-08T06:34:52.692Z,84.65
2019-03-08T06:37:21.890Z,84.61
2019-03-08T06:39:51.178Z,84.51
2019-03-08T06:42:20.455Z,84.49
2019-03-08T06:44:49.652Z,84.43
2019-03-08T06:47:18.960Z,84.43
2019-03-08T06:49:48.262Z,84.36
2019-03-08T06:52:17.482Z,84.22
2019-03-08T06:54:47.059Z,84.14
2019-03-08T06:57:16.417Z,84.18
2019-03-08T06:59:53.091Z,84.23
2019-03-08T07:02:23.006Z,84.27
2019-03-08T07:04:52.258Z,84.28
2019-03-08T07:07:21.607Z,84.36
2019-03-08T07:09:50.928Z,84.39
2019-03-08T07:12:21.585Z,84.47
2019-03-08T07:14:50.906Z,84.85
2019-03-08T07:17:20.597Z,84.91
2019-03-08T07:20:09.003Z,84.71
2019-03-08T07:23:03.376Z,84.67
2019-03-08T07:26:03.737Z,84.87
2019-03-08T07:28:57.731Z,85.00
2019-03-08T07:31:44.482Z,85.02
2019-03-08T07:34:38.749Z,85.13
2019-03-08T07:37:31.749Z,85.16
2019-03-08T07:40:15.841Z,85.21
2019-03-08T07:43:07.551Z,85.33
2019-03-08T07:45:55.728Z,85.47
2019-03-08T07:48:41.551Z,85.60
2019-03-08T07:51:28.411Z,85.67
2019-03-08T07:54:08.103Z,85.73
2019-03-08T07:56:59.300Z,85.73
2019-03-08T07:59:39.201Z,85.72
2019-03-08T08:02:45.729Z,85.74
2019-03-08T08:05:39.720Z,85.84
2019-03-08T08:08:18.402Z,85.87
2019-03-08T08:11:22.039Z,85.88
2019-03-08T08:14:01.326Z,85.52
2019-03-08T08:16:49.727Z,85.80
2019-03-08T08:19:28.423Z,85.89
2019-03-08T08:22:12.183Z,86.02
2019-03-08T08:24:56.286Z,86.15
2019-03-08T08:27:35.055Z,86.22
2019-03-08T08:30:22.101Z,86.23
2019-03-08T08:33:22.562Z,86.07
2019-03-08T08:36:00.848Z,86.08
2019-03-08T08:38:37.582Z,86.14
2019-03-08T08:41:25.783Z,86.07
2019-03-08T08:44:13.047Z,86.12
2019-03-08T08:47:16.783Z,86.16
2019-03-08T08:50:02.944Z,86.11
2019-03-08T08:52:54.029Z,86.16
2019-03-08T08:55:36.463Z,86.22
2019-03-08T08:58:24.275Z,86.36
2019-03-08T09:01:12.518Z,86.42
2019-03-08T09:03:48.538Z,86.50
2019-03-08T09:06:43.033Z,86.56
2019-03-08T09:09:34.209Z,86.65
2019-03-08T09:12:25.596Z,86.76
2019-03-08T09:15:16.950Z,86.86
2019-03-08T09:17:57.104Z,86.91
2019-03-08T09:20:54.447Z,86.87
2019-03-08T09:23:42.905Z,86.97
2019-03-08T09:26:29.730Z,87.05
2019-03-08T09:29:17.785Z,87.12
2019-03-08T09:32:21.382Z,87.20
2019-03-08T09:35:02.331Z,87.25
2019-03-08T09:38:05.550Z,87.23
2019-03-08T09:41:05.906Z,87.32
2019-03-08T09:43:54.134Z,87.33
2019-03-08T09:46:42.537Z,87.38
2019-03-08T09:49:23.263Z,87.44
2019-03-08T09:52:14.430Z,87.51
2019-03-08T09:54:49.090Z,87.58
2019-03-08T09:57:25.825Z,87.51
2019-03-08T10:00:12.794Z,87.69
2019-03-08T10:02:55.043Z,87.79
2019-03-08T10:05:41.802Z,87.79
2019-03-08T10:08:20.558Z,87.82
2019-03-08T10:11:08.745Z,87.85
2019-03-08T10:13:44.651Z,87.89
2019-03-08T10:16:27.137Z,87.93
2019-03-08T10:19:27.420Z,88.05
2019-03-08T10:22:18.677Z,88.07
2019-03-08T10:25:01.133Z,88.16
2019-03-08T10:27:48.022Z,88.14
2019-03-08T10:30:39.249Z,88.17
2019-03-08T10:33:26.272Z,88.06
2019-03-08T10:36:23.544Z,88.15
2019-03-08T10:39:14.503Z,88.16
2019-03-08T10:41:52.743Z,88.23
2019-03-08T10:44:30.287Z,88.27
2019-03-08T10:47:21.313Z,88.36
2019-03-08T10:50:12.465Z,88.40
2019-03-08T10:53:13.018Z,88.41
2019-03-08T10:55:54.264Z,88.41
2019-03-08T10:58:44.586Z,88.40
2019-03-08T11:01:29.422Z,88.32
2019-03-08T11:04:07.032Z,88.32
2019-03-08T11:06:55.462Z,88.34
2019-03-08T11:09:43.607Z,88.41
2019-03-08T11:12:43.781Z,88.36
2019-03-08T11:15:31.793Z,88.29
2019-03-08T11:18:14.379Z,88.33
2019-03-08T11:21:15.079Z,88.27
2019-03-08T11:24:02.382Z,88.19
2019-03-08T11:26:37.406Z,88.21
2019-03-08T11:29:21.218Z,88.14
2019-03-08T11:31:57.423Z,88.02
2019-03-08T11:34:36.548Z,88.10
2019-03-08T11:37:27.955Z,88.10
2019-03-08T11:40:25.689Z,88.14
2019-03-08T11:43:20.179Z,88.08
2019-03-08T11:45:55.786Z,87.93
2019-03-08T11:48:31.311Z,88.05
2019-03-08T11:51:22.366Z,88.00
2019-03-08T11:54:16.653Z,88.02
2019-03-08T11:57:04.640Z,88.03
2019-03-08T11:59:47.026Z,87.96
2019-03-08T12:02:37.816Z,87.90
2019-03-08T12:05:43.403Z,87.85
2019-03-08T12:08:31.814Z,87.72
2019-03-08T12:11:31.254Z,87.76
2019-03-08T12:14:11.579Z,87.65
2019-03-08T12:17:02.883Z,87.73
2019-03-08T12:19:54.396Z,87.75
2019-03-08T12:22:45.617Z,87.85
2019-03-08T12:25:21.445Z,87.79
2019-03-08T12:28:09.614Z,87.72
2019-03-08T12:30:45.953Z,87.59
2019-03-08T12:33:34.089Z,87.64
2019-03-08T12:36:16.171Z,87.67
2019-03-08T12:39:00.599Z,87.70
2019-03-08T12:41:45.490Z,87.84
2019-03-08T12:44:32.826Z,87.98
2019-03-08T12:47:16.315Z,87.99
2019-03-08T12:50:19.831Z,87.45
2019-03-08T12:52:58.051Z,87.11
2019-03-08T12:55:55.406Z,86.91
2019-03-08T12:58:34.198Z,86.86
2019-03-08T13:01:31.273Z,87.02
2019-03-08T13:04:09.657Z,86.81
2019-03-08T13:07:04.074Z,86.70
2019-03-08T13:09:46.972Z,86.53
2019-03-08T13:12:16.675Z,86.48
2019-03-08T13:14:45.857Z,86.62
2019-03-08T13:17:15.383Z,86.42
2019-03-08T13:19:44.567Z,86.41
2019-03-08T13:22:14.113Z,86.40
2019-03-08T13:24:43.594Z,86.24
2019-03-08T13:27:12.780Z,86.17
2019-03-08T13:29:42.002Z,85.91
2019-03-08T13:32:11.504Z,86.05
2019-03-08T13:34:40.685Z,86.01
2019-03-08T13:37:09.873Z,86.16
2019-03-08T13:39:39.298Z,85.93
2019-03-08T13:42:08.641Z,85.98
2019-03-08T13:44:38.004Z,85.99
2019-03-08T13:47:08.310Z,85.91
2019-03-08T13:49:37.494Z,85.79
2019-03-08T13:52:06.774Z,85.71
2019-03-08T13:54:36.381Z,85.81
2019-03-08T13:57:05.592Z,85.85
2019-03-08T13:59:34.799Z,85.87
2019-03-08T14:02:04.243Z,85.87
2019-03-08T14:04:33.716Z,85.85
2019-03-08T14:07:03.260Z,85.74
2019-03-08T14:09:32.721Z,85.77
2019-03-08T14:12:01.943Z,85.31
2019-03-08T14:14:31.520Z,85.28
2019-03-08T14:17:00.951Z,85.03
2019-03-08T14:19:30.131Z,85.18
2019-03-08T14:21:59.324Z,85.21
2019-03-08T14:24:28.827Z,85.10
2019-03-08T14:26:58.007Z,85.13
2019-03-08T14:29:27.204Z,85.10
2019-03-08T14:32:01.948Z,85.19
2019-03-08T14:34:31.127Z,85.18
2019-03-08T14:37:00.321Z,84.97
2019-03-08T14:39:30.984Z,85.00
2019-03-08T14:42:17.948Z,85.07
2019-03-08T14:44:53.948Z,85.08
2019-03-08T14:47:51.357Z,84.96
2019-03-08T14:50:21.014Z,84.98
2019-03-08T14:52:50.196Z,84.99
2019-03-08T14:55:22.543Z,84.92
2019-03-08T14:57:50.439Z,84.96
2019-03-08T15:00:29.166Z,85.00
2019-03-08T15:02:59.589Z,85.01
2019-03-08T15:05:28.758Z,85.11
2019-03-08T15:07:57.981Z,85.24
2019-03-08T15:10:27.413Z,85.32
2019-03-08T15:12:56.631Z,85.37
2019-03-08T15:15:25.949Z,85.38
2019-03-08T15:17:55.442Z,85.47
2019-03-08T15:20:24.610Z,85.65
2019-03-08T15:22:53.937Z,85.85
2019-03-08T15:25:23.247Z,86.33
2019-03-08T15:27:52.449Z,86.90
2019-03-08T15:30:21.664Z,87.02
2019-03-08T15:32:50.981Z,87.40
2019-03-08T15:35:20.382Z,87.76
2019-03-08T15:37:52.459Z,88.00
2019-03-08T15:40:23.159Z,88.24
2019-03-08T15:42:52.492Z,88.50
2019-03-08T15:45:22.071Z,88.56
2019-03-08T15:47:51.297Z,88.52
2019-03-08T15:50:20.513Z,88.92
2019-03-08T15:52:51.463Z,89.05
2019-03-08T15:55:20.774Z,89.06
2019-03-08T15:57:50.072Z,89.13
2019-03-08T16:00:20.312Z,89.20
2019-03-08T16:02:49.720Z,89.26
2019-03-08T16:05:19.040Z,89.31
2019-03-08T16:07:48.782Z,89.41
2019-03-08T16:10:19.221Z,89.39
2019-03-08T16:12:48.514Z,89.12
2019-03-08T16:15:17.897Z,89.03
2019-03-08T16:17:47.139Z,88.44
2019-03-08T16:20:16.531Z,88.52
2019-03-08T16:22:45.912Z,88.77
2019-03-08T16:25:16.047Z,88.93
2019-03-08T16:27:45.533Z,89.15
2019-03-08T16:30:32.933Z,89.09
2019-03-08T16:33:23.835Z,88.78
2019-03-08T16:36:23.368Z,88.58
2019-03-08T16:39:26.430Z,88.29
2019-03-08T16:42:14.083Z,88.59
2019-03-08T16:44:56.973Z,88.87
2019-03-08T16:47:42.654Z,88.85
2019-03-08T16:50:22.292Z,88.92
2019-03-08T16:52:56.059Z,89.15
2019-03-08T16:55:41.208Z,89.21
2019-03-08T16:58:38.870Z,89.28
2019-03-08T17:01:32.831Z,89.18
2019-03-08T17:04:26.218Z,89.27
2019-03-08T17:07:07.909Z,89.35
2019-03-08T17:09:46.106Z,89.41
2019-03-08T17:12:33.133Z,89.42
2019-03-08T17:15:20.259Z,89.47
2019-03-08T17:18:08.386Z,89.47
2019-03-08T17:20:45.593Z,89.46
2019-03-08T17:23:27.629Z,89.38
2019-03-08T17:26:21.137Z,89.32
2019-03-08T17:29:07.139Z,89.31
2019-03-08T17:31:42.699Z,88.88
2019-03-08T17:34:33.838Z,88.90
2019-03-08T17:37:22.100Z,88.90
2019-03-08T17:39:57.793Z,88.92
2019-03-08T17:42:40.410Z,89.18
2019-03-08T17:45:28.733Z,89.36
2019-03-08T17:48:23.226Z,89.43
2019-03-08T17:51:10.029Z,89.51
2019-03-08T17:53:50.657Z,89.55
2019-03-08T17:56:32.074Z,89.76
2019-03-08T17:59:15.962Z,89.80
2019-03-08T18:02:03.274Z,89.88
2019-03-08T18:04:57.346Z,90.07
2019-03-08T18:07:35.896Z,90.38
2019-03-08T18:10:14.582Z,90.46
2019-03-08T18:13:21.437Z,90.41
2019-03-08T18:16:28.141Z,90.46
2019-03-08T18:19:09.235Z,90.58
2019-03-08T18:21:43.360Z,90.69
2019-03-08T18:24:34.850Z,90.86
2019-03-08T18:27:16.357Z,90.82
2019-03-08T18:29:54.688Z,90.80
2019-03-08T18:32:46.001Z,90.66
2019-03-08T18:35:46.408Z,90.61
2019-03-08T18:38:41.095Z,90.57
2019-03-08T18:41:32.995Z,90.35
2019-03-08T18:44:08.708Z,90.48
2019-03-08T18:47:09.141Z,90.36
2019-03-08T18:50:05.857Z,90.27
2019-03-08T18:52:56.876Z,90.34
2019-03-08T18:55:40.859Z,90.28
2019-03-08T18:58:38.423Z,90.18
2019-03-08T19:01:29.769Z,90.12
2019-03-08T19:04:07.743Z,90.18
2019-03-08T19:06:50.377Z,90.19
2019-03-08T19:09:38.927Z,90.16
2019-03-08T19:12:13.385Z,90.04
2019-03-08T19:14:51.560Z,89.82
2019-03-08T19:17:39.821Z,89.79
2019-03-08T19:20:34.348Z,89.68
2019-03-08T19:23:28.214Z,89.90
2019-03-08T19:26:07.313Z,90.09
2019-03-08T19:29:00.548Z,90.35
2019-03-08T19:31:34.790Z,90.46
2019-03-08T19:34:22.009Z,90.62
2019-03-08T19:37:10.379Z,90.70
2019-03-08T19:40:07.990Z,90.78
2019-03-08T19:42:58.413Z,90.79
2019-03-08T19:45:49.670Z,90.80
2019-03-08T19:48:44.244Z,90.86
2019-03-08T19:51:35.198Z,90.74
2019-03-08T19:54:16.334Z,90.88
2019-03-08T19:57:07.308Z,90.88
2019-03-08T20:00:14.275Z,91.00
2019-03-08T20:02:52.892Z,91.02
2019-03-08T20:05:40.386Z,91.03
2019-03-08T20:08:34.913Z,90.98
2019-03-08T20:11:29.016Z,90.97
2019-03-08T20:14:16.953Z,90.97
2019-03-08T20:17:05.354Z,91.18
2019-03-08T20:19:41.734Z,91.33
2019-03-08T20:22:39.222Z,91.44
2019-03-08T20:25:46.464Z,91.55
2019-03-08T20:28:34.686Z,91.71
2019-03-08T20:31:10.802Z,91.80
2019-03-08T20:33:54.116Z,91.87
2019-03-08T20:36:45.725Z,91.86
2019-03-08T20:39:33.980Z,91.74
2019-03-08T20:42:19.597Z,91.53
2019-03-08T20:45:10.814Z,91.57
2019-03-08T20:47:40.074Z,91.44
2019-03-08T20:50:10.780Z,91.22
2019-03-08T20:52:40.241Z,91.03
2019-03-08T20:55:09.957Z,90.69
2019-03-08T20:57:39.224Z,90.57
2019-03-08T21:00:09.623Z,90.24
2019-03-08T21:02:38.984Z,90.06
2019-03-08T21:05:08.410Z,90.09
2019-03-08T21:07:37.781Z,89.95
2019-03-08T21:10:07.570Z,89.87
2019-03-08T21:12:36.832Z,90.01
2019-03-08T21:15:08.119Z,90.04
2019-03-08T21:17:37.339Z,89.96
2019-03-08T21:20:07.835Z,90.05
2019-03-08T21:22:37.119Z,89.97
2019-03-08T21:25:08.102Z,89.99
2019-03-08T21:27:38.813Z,89.99
2019-03-08T21:30:10.540Z,89.90
2019-03-08T21:32:40.082Z,89.88
2019-03-08T21:35:09.282Z,89.85
2019-03-08T21:37:38.464Z,89.71
2019-03-08T21:40:08.725Z,89.58
2019-03-08T21:42:38.098Z,89.37
2019-03-08T21:45:08.449Z,89.25
2019-03-08T21:47:38.035Z,88.72
2019-03-08T21:50:08.653Z,88.27
2019-03-08T21:52:37.986Z,87.92
2019-03-08T21:55:07.969Z,86.64
2019-03-08T21:57:37.439Z,86.58
2019-03-08T22:00:16.862Z,86.57
2019-03-08T22:02:46.180Z,85.54
2019-03-08T22:05:21.531Z,85.59
2019-03-08T22:07:50.712Z,85.26
2019-03-08T22:10:44.859Z,84.89
2019-03-08T22:13:14.087Z,84.96
2019-03-08T22:15:43.591Z,84.76
2019-03-08T22:18:12.920Z,84.44
2019-03-08T22:20:42.111Z,83.76
2019-03-08T22:23:11.705Z,83.90
2019-03-08T22:25:41.022Z,83.65
2019-03-08T22:28:10.495Z,83.79
2019-03-08T22:30:39.701Z,83.77
2019-03-08T22:33:09.486Z,83.52
2019-03-08T22:35:39.093Z,83.10
2019-03-08T22:38:08.291Z,82.37
2019-03-08T22:40:37.692Z,81.99
2019-03-08T22:43:07.610Z,81.78
2019-03-08T22:45:36.802Z,81.78
2019-03-08T22:48:06.691Z,81.45
2019-03-08T22:50:35.920Z,80.86
2019-03-08T22:53:05.211Z,81.14
2019-03-08T22:55:34.665Z,80.82
2019-03-08T22:58:03.911Z,81.00
2019-03-08T23:01:05.458Z,80.67
2019-03-08T23:03:36.357Z,80.23
2019-03-08T23:06:06.115Z,80.20
2019-03-08T23:08:35.730Z,79.73
2019-03-08T23:11:07.768Z,79.40
2019-03-08T23:13:38.053Z,79.67
2019-03-08T23:16:07.491Z,79.62
2019-03-08T23:18:36.897Z,79.12
2019-03-08T23:21:06.082Z,79.15
2019-03-08T23:23:35.329Z,79.29
2019-03-08T23:26:05.111Z,79.10
2019-03-08T23:28:42.026Z,79.51
2019-03-08T23:31:22.803Z,79.42
2019-03-08T23:33:52.035Z,79.55
2019-03-08T23:36:21.240Z,79.52
2019-03-08T23:38:50.656Z,79.23
2019-03-08T23:41:20.175Z,79.46
2019-03-08T23:43:49.374Z,79.41
2019-03-08T23:46:18.688Z,79.46
2019-03-08T23:48:47.935Z,79.39
2019-03-08T23:51:17.149Z,79.57
2019-03-08T23:53:46.440Z,79.48
2019-03-08T23:56:15.656Z,79.40
2019-03-08T23:58:44.855Z,79.21
